Time;durP1;ratioP1;P1;durP2;ratioP2;P2;SDS_P1;SDS_P2;PMS_P1;PMS_P2;Temp;Humidity;BMP_temperature;BMP_pressure;BME280_temperature;BME280_humidity;BME280_pressure;Samples;Min_cycle;Max_cycle;Signal;HPM_P1;HPM_P2
2023/07/29 13:56:13;;;;;;;7.57;4.15;;;22.20;74.10;;;;;;5108240;27;20170;-44
2023/07/29 13:58:39;;;;;;;9.93;3.80;;;22.30;75.00;;;;;;5088863;28;20401;-48
2023/07/29 14:01:05;;;;;;;8.88;4.25;;;22.30;75.20;;;;;;5088642;28;20391;-44
2023/07/29 14:03:31;;;;;;;10.32;4.18;;;22.30;75.10;;;;;;5088506;28;20050;-47
2023/07/29 14:05:56;;;;;;;6.20;3.60;;;22.30;75.60;;;;;;5088198;28;20021;-44
2023/07/29 14:08:25;;;;;;;5.75;3.25;;;22.30;74.50;;;;;;5088216;28;20551;-46
2023/07/29 14:10:51;;;;;;;13.70;4.13;;;22.40;75.90;;;;;;5098534;23;23797;-50
2023/07/29 14:13:17;;;;;;;13.07;3.22;;;22.40;75.90;;;;;;5040039;28;20021;-47
2023/07/29 14:15:42;;;;;;;15.27;3.70;;;22.50;75.50;;;;;;5047546;28;20057;-51
2023/07/29 14:18:08;;;;;;;7.65;3.30;;;22.50;75.30;;;;;;5048774;28;20029;-51
2023/07/29 14:20:34;;;;;;;13.85;3.50;;;22.50;75.70;;;;;;5048304;28;20025;-51
2023/07/29 14:23:00;;;;;;;8.30;3.28;;;22.50;75.50;;;;;;5046827;28;20611;-56
2023/07/29 14:25:26;;;;;;;7.85;3.50;;;22.50;75.90;;;;;;5047338;28;20072;-49
2023/07/29 14:27:52;;;;;;;10.23;3.40;;;22.50;75.50;;;;;;5033916;28;20053;-52
2023/07/29 14:30:18;;;;;;;6.55;3.00;;;22.50;76.20;;;;;;5035417;28;20060;-51
2023/07/29 14:32:44;;;;;;;15.70;3.88;;;22.50;77.00;;;;;;5030701;28;20037;-55
2023/07/29 14:35:10;;;;;;;21.48;3.47;;;22.50;75.80;;;;;;5026232;28;20053;-51
2023/07/29 14:37:35;;;;;;;11.18;3.83;;;22.50;75.50;;;;;;5026860;28;20037;-48
2023/07/29 14:40:02;;;;;;;10.93;2.90;;;22.60;76.00;;;;;;5026115;28;20111;-50
2023/07/29 14:42:28;;;;;;;9.13;2.60;;;22.50;76.50;;;;;;5026650;28;20558;-49
2023/07/29 14:44:55;;;;;;;13.50;2.90;;;22.50;76.20;;;;;;5026140;28;20064;-50
2023/07/29 14:47:20;;;;;;;4.15;2.15;;;22.50;76.80;;;;;;5026686;28;20029;-53
2023/07/29 14:49:46;;;;;;;5.93;2.70;;;22.50;76.90;;;;;;5027706;28;20033;-53
2023/07/29 14:52:12;;;;;;;8.93;2.92;;;22.50;76.30;;;;;;5034452;28;20398;-50
2023/07/29 14:54:38;;;;;;;5.43;2.67;;;22.50;76.10;;;;;;5045732;28;20359;-54
2023/07/29 14:57:05;;;;;;;6.88;2.88;;;22.50;76.00;;;;;;5034986;28;20037;-49
2023/07/29 14:59:31;;;;;;;4.68;2.38;;;22.50;76.30;;;;;;4997428;28;20089;-51
2023/07/29 15:01:57;;;;;;;7.57;2.50;;;22.50;76.60;;;;;;5014537;28;20080;-52
2023/07/29 15:04:23;;;;;;;7.25;2.60;;;22.50;76.60;;;;;;5014162;28;20026;-52
2023/07/29 15:06:48;;;;;;;8.82;2.80;;;22.60;76.80;;;;;;5018480;28;20433;-54
2023/07/29 15:09:14;;;;;;;12.15;3.53;;;22.50;76.50;;;;;;5022163;28;20528;-52
2023/07/29 15:11:41;;;;;;;8.90;2.80;;;22.50;76.90;;;;;;5000736;28;20032;-52
2023/07/29 15:14:07;;;;;;;4.85;2.70;;;22.50;76.90;;;;;;5016970;28;20160;-54
2023/07/29 15:16:37;;;;;;;6.18;2.75;;;22.50;76.80;;;;;;5024275;28;20108;-53
2023/07/29 15:19:06;;;;;;;5.07;2.47;;;22.50;75.60;;;;;;5021525;28;20033;-55
2023/07/29 15:21:35;;;;;;;5.63;2.60;;;22.50;76.90;;;;;;5023938;28;20075;-54
2023/07/29 15:24:01;;;;;;;7.28;2.42;;;22.50;76.90;;;;;;5017103;28;20029;-55
2023/07/29 15:26:27;;;;;;;4.72;2.42;;;22.50;76.40;;;;;;5017686;28;20033;-52
2023/07/29 15:28:52;;;;;;;6.88;2.70;;;22.50;76.60;;;;;;5016569;28;20108;-54
2023/07/29 15:31:18;;;;;;;10.35;2.72;;;22.50;76.40;;;;;;5016603;28;20022;-52
2023/07/29 15:33:44;;;;;;;12.05;3.10;;;22.50;76.10;;;;;;5023257;28;20163;-51
2023/07/29 15:36:10;;;;;;;18.92;3.22;;;22.60;76.00;;;;;;5020478;28;20048;-52
2023/07/29 15:38:36;;;;;;;25.48;3.22;;;22.60;75.90;;;;;;5027989;28;20073;-54
2023/07/29 15:41:01;;;;;;;16.52;3.35;;;22.60;76.20;;;;;;5031459;28;20488;-50
2023/07/29 15:43:27;;;;;;;13.65;3.10;;;22.60;75.20;;;;;;5030359;28;20061;-55
2023/07/29 15:45:53;;;;;;;15.18;3.08;;;22.60;75.60;;;;;;5018901;28;20026;-53
2023/07/29 15:48:19;;;;;;;16.98;3.15;;;22.50;75.50;;;;;;5013635;28;20026;-53
2023/07/29 15:50:45;;;;;;;13.80;3.00;;;22.50;75.10;;;;;;5028116;28;20048;-54
2023/07/29 15:53:11;;;;;;;11.77;2.70;;;22.50;75.00;;;;;;5032343;28;20026;-53
2023/07/29 15:55:37;;;;;;;12.10;2.88;;;22.40;75.00;;;;;;5013213;28;20470;-48
2023/07/29 15:58:02;;;;;;;11.80;2.90;;;22.40;74.90;;;;;;5013400;28;20030;-49
2023/07/29 16:00:28;;;;;;;8.48;2.47;;;22.40;74.80;;;;;;5013293;28;20440;-48
2023/07/29 16:02:55;;;;;;;15.65;3.13;;;22.40;74.90;;;;;;5013389;28;20022;-48
2023/07/29 16:05:21;;;;;;;7.20;2.65;;;22.40;74.80;;;;;;5012945;28;20038;-52
2023/07/29 16:07:47;;;;;;;5.68;2.58;;;22.40;74.70;;;;;;5012370;28;20064;-49
2023/07/29 16:10:12;;;;;;;5.80;2.88;;;22.40;74.70;;;;;;5013313;28;20057;-52
2023/07/29 16:12:38;;;;;;;8.63;2.78;;;22.40;74.70;;;;;;5013040;28;20026;-51
2023/07/29 16:15:08;;;;;;;12.88;2.75;;;22.40;74.80;;;;;;5012935;28;20080;-52
2023/07/29 16:17:34;;;;;;;8.65;2.42;;;22.40;74.70;;;;;;4995444;28;20058;-50
2023/07/29 16:20:03;;;;;;;8.98;2.78;;;22.40;74.60;;;;;;5013087;28;20072;-54
2023/07/29 16:22:29;;;;;;;13.85;2.67;;;22.40;74.60;;;;;;5012982;28;20034;-48
2023/07/29 16:24:55;;;;;;;10.50;2.60;;;22.40;74.50;;;;;;5012742;28;20543;-49
2023/07/29 16:27:22;;;;;;;7.07;2.70;;;22.40;74.60;;;;;;5012893;28;20075;-50
2023/07/29 16:29:49;;;;;;;7.95;2.30;;;22.40;74.60;;;;;;5012921;28;20488;-48
2023/07/29 16:32:17;;;;;;;6.90;2.40;;;22.40;74.60;;;;;;5013225;28;20030;-52
2023/07/29 16:34:43;;;;;;;6.60;2.63;;;22.40;74.40;;;;;;5012540;28;20555;-48
2023/07/29 16:37:09;;;;;;;6.70;2.92;;;22.40;74.50;;;;;;5012765;28;20029;-48
2023/07/29 16:39:35;;;;;;;7.97;2.72;;;22.40;74.40;;;;;;5012963;28;20364;-49
2023/07/29 16:42:01;;;;;;;10.27;2.90;;;22.40;74.50;;;;;;5012691;28;20033;-49
2023/07/29 16:44:27;;;;;;;6.95;2.78;;;22.40;74.30;;;;;;5012409;28;20037;-53
2023/07/29 16:46:53;;;;;;;4.38;2.70;;;22.40;74.40;;;;;;5012522;28;20481;-50
2023/07/29 16:49:19;;;;;;;5.72;2.60;;;22.40;74.30;;;;;;4995030;28;20033;-53
2023/07/29 16:51:45;;;;;;;5.05;2.92;;;22.40;74.20;;;;;;5012351;28;20080;-53
2023/07/29 16:54:10;;;;;;;6.88;2.65;;;22.40;74.20;;;;;;5012920;28;20080;-51
2023/07/29 16:56:36;;;;;;;6.60;3.25;;;22.30;74.10;;;;;;5012112;28;20034;-51
2023/07/29 16:59:02;;;;;;;11.45;3.10;;;22.30;74.00;;;;;;5012439;28;20121;-49
2023/07/29 17:01:28;;;;;;;6.80;3.05;;;22.30;74.10;;;;;;5012227;28;20030;-54
2023/07/29 17:03:54;;;;;;;5.97;3.15;;;22.40;74.20;;;;;;5012334;28;20056;-50
2023/07/29 17:06:19;;;;;;;8.68;2.78;;;22.40;74.10;;;;;;5011962;28;20040;-53
2023/07/29 17:08:45;;;;;;;7.60;3.22;;;22.40;74.10;;;;;;5012288;28;20057;-51
2023/07/29 17:11:11;;;;;;;7.25;2.83;;;22.30;74.00;;;;;;5011991;28;20029;-55
2023/07/29 17:13:37;;;;;;;7.70;3.47;;;22.40;74.20;;;;;;5012087;28;20453;-51
2023/07/29 17:16:03;;;;;;;7.60;3.30;;;22.40;74.00;;;;;;5011771;28;20033;-60
2023/07/29 17:18:28;;;;;;;8.50;4.00;;;22.30;74.00;;;;;;5011814;28;20026;-53
2023/07/29 17:20:54;;;;;;;6.07;3.70;;;22.30;74.00;;;;;;5011898;28;20389;-55
2023/07/29 17:23:20;;;;;;;6.82;4.00;;;22.30;73.90;;;;;;5012092;28;20485;-55
2023/07/29 17:25:46;;;;;;;9.70;3.90;;;22.30;74.00;;;;;;5011590;28;20477;-53
2023/07/29 17:28:12;;;;;;;8.93;3.70;;;22.40;74.00;;;;;;5011988;28;20052;-50
2023/07/29 17:30:37;;;;;;;9.52;3.92;;;22.30;73.90;;;;;;5011838;28;20030;-48
2023/07/29 17:33:03;;;;;;;7.60;4.22;;;22.30;73.80;;;;;;5011927;28;20049;-49
2023/07/29 17:35:30;;;;;;;6.82;3.92;;;22.40;73.80;;;;;;5011588;28;20026;-49
2023/07/29 17:37:56;;;;;;;8.68;4.35;;;22.30;73.70;;;;;;5012102;28;20026;-54
2023/07/29 17:40:22;;;;;;;7.32;3.92;;;22.40;73.70;;;;;;5011756;28;20137;-49
2023/07/29 17:42:48;;;;;;;10.13;4.47;;;22.40;73.70;;;;;;5012244;28;20503;-48
2023/07/29 17:45:14;;;;;;;9.98;4.32;;;22.30;73.70;;;;;;5011142;28;20030;-49
2023/07/29 17:47:39;;;;;;;9.65;4.55;;;22.40;73.70;;;;;;5011651;28;20026;-48
2023/07/29 17:50:06;;;;;;;10.05;4.50;;;22.40;73.70;;;;;;5012079;28;20048;-49
2023/07/29 17:52:32;;;;;;;7.57;4.30;;;22.40;73.50;;;;;;5011647;28;20428;-50
2023/07/29 17:54:58;;;;;;;7.75;4.25;;;22.30;73.70;;;;;;5011321;28;20397;-50
2023/07/29 17:57:26;;;;;;;9.10;4.75;;;22.40;73.60;;;;;;5011620;28;20034;-47
2023/07/29 17:59:52;;;;;;;7.72;4.55;;;22.40;73.60;;;;;;5011608;28;20033;-52
2023/07/29 18:02:18;;;;;;;8.68;4.13;;;22.40;73.60;;;;;;5011428;28;20037;-50
2023/07/29 18:04:46;;;;;;;11.00;4.60;;;22.40;73.60;;;;;;5011259;28;20454;-48
2023/07/29 18:07:12;;;;;;;7.88;4.15;;;22.30;73.40;;;;;;5011653;28;20050;-49
2023/07/29 18:09:38;;;;;;;7.65;4.47;;;22.30;73.50;;;;;;5011630;28;20084;-56
2023/07/29 18:12:04;;;;;;;7.88;4.32;;;22.30;73.50;;;;;;5011474;28;20054;-50
2023/07/29 18:14:30;;;;;;;8.27;4.57;;;22.40;73.50;;;;;;5011280;28;20106;-49
2023/07/29 18:16:56;;;;;;;8.52;4.55;;;22.30;73.50;;;;;;5011390;28;20122;-48
2023/07/29 18:19:22;;;;;;;8.65;4.38;;;22.30;73.50;;;;;;5011408;28;20030;-48
2023/07/29 18:21:48;;;;;;;8.98;4.60;;;22.30;73.50;;;;;;5011291;28;20034;-50
2023/07/29 18:24:14;;;;;;;8.35;4.60;;;22.30;73.40;;;;;;5011298;28;20038;-49
2023/07/29 18:26:39;;;;;;;9.00;4.68;;;22.30;73.40;;;;;;4993630;28;20061;-49
2023/07/29 18:29:05;;;;;;;7.82;4.53;;;22.30;73.40;;;;;;5011299;28;20453;-50
2023/07/29 18:31:32;;;;;;;9.20;4.63;;;22.30;73.40;;;;;;5013116;28;20028;-53
2023/07/29 18:33:58;;;;;;;8.25;4.50;;;22.30;73.40;;;;;;5015058;28;20026;-51
2023/07/29 18:36:24;;;;;;;7.32;4.47;;;22.30;73.30;;;;;;5014906;28;20037;-52
2023/07/29 18:38:50;;;;;;;11.27;5.18;;;22.30;73.30;;;;;;5015030;28;20038;-54
2023/07/29 18:41:15;;;;;;;9.52;4.80;;;22.30;73.30;;;;;;5014807;28;20393;-53
2023/07/29 18:43:41;;;;;;;9.85;4.95;;;22.30;73.90;;;;;;5014607;28;20030;-49
2023/07/29 18:46:07;;;;;;;7.90;4.50;;;22.30;73.30;;;;;;5014567;28;20022;-52
2023/07/29 18:48:33;;;;;;;10.68;4.68;;;22.30;73.30;;;;;;5015004;28;20029;-54
2023/07/29 18:51:00;;;;;;;9.25;4.82;;;22.30;73.30;;;;;;5014665;28;20032;-51
2023/07/29 18:53:26;;;;;;;7.80;4.70;;;22.30;73.30;;;;;;4997431;28;20497;-50
2023/07/29 18:55:52;;;;;;;11.50;5.07;;;22.30;73.30;;;;;;5014399;28;20148;-55
2023/07/29 18:58:18;;;;;;;10.63;5.07;;;22.30;73.40;;;;;;5014466;28;20033;-54
2023/07/29 19:00:46;;;;;;;9.38;4.93;;;22.30;73.40;;;;;;5014495;28;20034;-50
2023/07/29 19:03:12;;;;;;;8.15;4.63;;;22.30;73.30;;;;;;5014435;28;20370;-52
2023/07/29 19:05:37;;;;;;;9.52;4.93;;;22.30;73.30;;;;;;5014186;28;20030;-50
2023/07/29 19:08:04;;;;;;;9.20;5.07;;;22.30;73.40;;;;;;5014437;28;20033;-49
2023/07/29 19:10:30;;;;;;;7.18;4.20;;;22.30;73.40;;;;;;5014271;28;20029;-53
2023/07/29 19:12:57;;;;;;;8.85;5.03;;;22.30;73.40;;;;;;5014069;28;20038;-53
2023/07/29 19:15:22;;;;;;;8.80;4.80;;;22.30;73.30;;;;;;5014021;28;20030;-48
2023/07/29 19:17:48;;;;;;;8.07;4.82;;;22.30;73.30;;;;;;5014223;28;20037;-50
2023/07/29 19:20:14;;;;;;;7.80;4.25;;;22.30;73.20;;;;;;5014226;28;20037;-53
2023/07/29 19:22:40;;;;;;;8.25;4.85;;;22.30;73.30;;;;;;5014108;28;20411;-50
2023/07/29 19:25:08;;;;;;;9.43;4.80;;;22.30;73.30;;;;;;5013713;28;20026;-50
2023/07/29 19:27:34;;;;;;;9.18;4.50;;;22.30;73.20;;;;;;5014134;28;20064;-49
2023/07/29 19:30:00;;;;;;;9.77;5.03;;;22.30;73.20;;;;;;5013940;28;20022;-48
2023/07/29 19:32:26;;;;;;;9.20;4.55;;;22.30;73.20;;;;;;5013917;28;20026;-50
2023/07/29 19:34:54;;;;;;;8.30;4.68;;;22.30;73.20;;;;;;5014036;28;20540;-50
2023/07/29 19:37:22;;;;;;;10.38;5.55;;;22.30;73.30;;;;;;5013823;28;20026;-48
2023/07/29 19:39:48;;;;;;;9.10;4.90;;;22.30;73.80;;;;;;5013717;28;20401;-49
2023/07/29 19:42:14;;;;;;;9.38;4.97;;;22.30;73.30;;;;;;5013544;28;20030;-52
2023/07/29 19:44:40;;;;;;;9.18;5.30;;;22.30;73.20;;;;;;5013176;28;20026;-55
2023/07/29 19:47:06;;;;;;;10.07;5.30;;;22.40;73.30;;;;;;5013906;28;20046;-53
2023/07/29 19:49:31;;;;;;;10.57;5.40;;;22.30;73.20;;;;;;5013762;28;20029;-55
2023/07/29 19:52:00;;;;;;;8.63;4.90;;;22.30;73.10;;;;;;5013401;28;20030;-55
2023/07/29 19:54:27;;;;;;;6.28;4.40;;;22.40;73.20;;;;;;5013245;28;20072;-54
2023/07/29 19:56:53;;;;;;;7.53;4.75;;;22.40;73.30;;;;;;4996013;28;20477;-53
2023/07/29 19:59:19;;;;;;;7.85;5.13;;;22.30;73.10;;;;;;5013478;28;20415;-55
2023/07/29 20:01:45;;;;;;;8.60;5.28;;;22.30;73.10;;;;;;5013325;28;20029;-55
2023/07/29 20:04:11;;;;;;;8.75;4.80;;;22.30;73.20;;;;;;4995840;28;20400;-51
2023/07/29 20:06:37;;;;;;;8.95;5.30;;;22.30;73.10;;;;;;5013077;28;20026;-51
2023/07/29 20:09:04;;;;;;;9.40;5.25;;;22.30;73.10;;;;;;5013474;28;20026;-54
2023/07/29 20:11:30;;;;;;;11.52;5.40;;;22.30;73.10;;;;;;4995644;28;20034;-53
2023/07/29 20:13:55;;;;;;;7.95;5.00;;;22.30;73.10;;;;;;5013154;28;20041;-49
2023/07/29 20:16:24;;;;;;;10.15;4.97;;;22.30;73.10;;;;;;5012875;28;20044;-55
2023/07/29 20:18:50;;;;;;;6.80;4.60;;;22.30;73.20;;;;;;5013048;28;20026;-53
2023/07/29 20:21:16;;;;;;;9.70;5.45;;;22.30;73.00;;;;;;4995316;28;20113;-55
2023/07/29 20:23:41;;;;;;;8.93;5.40;;;22.30;73.10;;;;;;5012931;28;20048;-51
2023/07/29 20:26:07;;;;;;;10.13;5.45;;;22.30;73.10;;;;;;5012762;28;20378;-53
2023/07/29 20:28:33;;;;;;;9.63;5.22;;;22.30;73.10;;;;;;5013103;28;20029;-55
2023/07/29 20:30:59;;;;;;;9.85;5.07;;;22.30;73.00;;;;;;5013220;28;20029;-54
2023/07/29 20:33:26;;;;;;;9.52;5.05;;;22.30;73.00;;;;;;5012809;28;20026;-51
2023/07/29 20:35:58;;;;;;;9.75;4.80;;;22.30;73.10;;;;;;5012391;28;20057;-52
2023/07/29 20:38:24;;;;;;;9.68;5.32;;;22.30;73.00;;;;;;5012896;28;20063;-52
2023/07/29 20:40:54;;;;;;;8.13;5.53;;;22.30;72.90;;;;;;5012709;28;20493;-54
2023/07/29 20:43:21;;;;;;;9.80;5.13;;;22.30;73.10;;;;;;5012595;28;20038;-49
2023/07/29 20:45:48;;;;;;;8.93;5.28;;;22.30;72.90;;;;;;5011939;28;20064;-49
2023/07/29 20:48:14;;;;;;;9.48;5.07;;;22.30;73.10;;;;;;5012786;28;20026;-52
2023/07/29 20:50:41;;;;;;;9.88;4.90;;;22.30;73.00;;;;;;5012520;28;20108;-48
2023/07/29 20:53:08;;;;;;;9.10;5.40;;;22.30;73.00;;;;;;5012172;28;20500;-52
2023/07/29 20:55:33;;;;;;;9.07;4.78;;;22.30;73.00;;;;;;5011913;28;20030;-49
2023/07/29 20:57:59;;;;;;;9.65;5.45;;;22.30;73.00;;;;;;5012367;28;20512;-50
2023/07/29 21:00:25;;;;;;;11.85;5.53;;;22.30;73.00;;;;;;5012237;28;20026;-52
2023/07/29 21:02:51;;;;;;;9.68;5.72;;;22.30;73.00;;;;;;5012384;28;20480;-51
2023/07/29 21:05:16;;;;;;;8.93;5.50;;;22.30;73.00;;;;;;5011880;28;20038;-52
2023/07/29 21:07:42;;;;;;;8.15;5.10;;;22.30;72.90;;;;;;5012224;28;20097;-50
2023/07/29 21:10:08;;;;;;;10.05;5.13;;;22.30;72.90;;;;;;5012268;28;20022;-55
2023/07/29 21:12:34;;;;;;;9.93;5.55;;;22.30;72.90;;;;;;5012009;28;20468;-51
2023/07/29 21:15:00;;;;;;;7.85;4.80;;;22.30;72.80;;;;;;5011781;28;20030;-50
2023/07/29 21:17:26;;;;;;;9.93;5.10;;;22.30;72.80;;;;;;5012271;28;20084;-51
2023/07/29 21:19:51;;;;;;;9.13;5.60;;;22.30;72.80;;;;;;5012010;28;20057;-55
2023/07/29 21:22:17;;;;;;;9.45;5.05;;;22.30;72.80;;;;;;5011999;28;20493;-55
2023/07/29 21:24:43;;;;;;;8.73;5.20;;;22.30;72.70;;;;;;5011697;28;20030;-48
2023/07/29 21:27:09;;;;;;;9.98;5.60;;;22.30;72.70;;;;;;5011962;28;20432;-54
2023/07/29 21:29:35;;;;;;;9.00;5.05;;;22.30;72.70;;;;;;5011928;28;20050;-51
2023/07/29 21:32:01;;;;;;;8.98;5.10;;;22.30;72.70;;;;;;5012018;28;20112;-48
2023/07/29 21:34:26;;;;;;;8.75;4.72;;;22.30;72.60;;;;;;4994035;28;20034;-48
2023/07/29 21:36:53;;;;;;;8.82;5.18;;;22.30;72.60;;;;;;5011853;28;20555;-49
2023/07/29 21:39:19;;;;;;;8.98;4.90;;;22.30;72.50;;;;;;5011952;28;20030;-49
2023/07/29 21:41:44;;;;;;;8.55;5.18;;;22.30;72.60;;;;;;5011761;28;20595;-49
2023/07/29 21:44:10;;;;;;;8.77;5.30;;;22.30;72.60;;;;;;5011629;28;20045;-48
2023/07/29 21:46:36;;;;;;;7.95;4.70;;;22.30;72.60;;;;;;4994119;28;20029;-48
2023/07/29 21:49:02;;;;;;;8.00;4.70;;;22.30;72.60;;;;;;5011792;28;20064;-48
2023/07/29 21:51:28;;;;;;;9.13;5.10;;;22.30;72.40;;;;;;5011799;28;20022;-51
2023/07/29 21:53:53;;;;;;;10.18;5.45;;;22.30;72.60;;;;;;4994289;28;20041;-51
2023/07/29 21:56:19;;;;;;;7.88;4.55;;;22.30;72.50;;;;;;5011389;28;20030;-48
2023/07/29 21:58:45;;;;;;;8.25;5.10;;;22.30;72.40;;;;;;5012113;28;20535;-50
2023/07/29 22:01:11;;;;;;;7.38;4.45;;;22.30;72.50;;;;;;5011648;28;20033;-49
2023/07/29 22:03:36;;;;;;;8.82;4.85;;;22.30;72.50;;;;;;5011525;28;20046;-48
2023/07/29 22:06:06;;;;;;;7.95;4.80;;;22.30;72.60;;;;;;5012486;28;20032;-50
2023/07/29 22:08:32;;;;;;;8.25;5.07;;;22.30;72.60;;;;;;5015559;28;20037;-48
2023/07/29 22:11:03;;;;;;;9.18;5.60;;;22.30;72.50;;;;;;5015420;28;20034;-50
2023/07/29 22:13:29;;;;;;;8.32;4.88;;;22.30;72.60;;;;;;5015560;28;20057;-48
2023/07/29 22:15:54;;;;;;;10.02;5.03;;;22.30;72.50;;;;;;4997698;28;20120;-48
2023/07/29 22:18:20;;;;;;;7.72;5.03;;;22.30;72.50;;;;;;4997926;28;20111;-49
2023/07/29 22:20:56;;;;;;;10.00;5.20;;;22.30;72.50;;;;;;5015204;28;20030;-54
2023/07/29 22:23:22;;;;;;;8.63;5.00;;;22.30;72.50;;;;;;5015114;28;20053;-54
2023/07/29 22:26:02;;;;;;;7.68;5.13;;;22.30;72.60;;;;;;5014521;28;20412;-52
2023/07/29 22:28:29;;;;;;;;;;;22.30;72.50;;;;;;5016748;28;20477;-51
2023/07/29 22:30:57;;;;;;;9.88;4.90;;;22.30;72.40;;;;;;4997555;28;19909;-53
2023/07/29 22:33:24;;;;;;;9.90;5.10;;;22.30;72.50;;;;;;5014789;28;20184;-52
2023/07/29 22:35:49;;;;;;;8.05;4.80;;;22.30;72.50;;;;;;5014791;28;20032;-51
2023/07/29 22:38:15;;;;;;;8.20;4.88;;;22.30;72.40;;;;;;5015036;28;20029;-52
2023/07/29 22:40:41;;;;;;;7.93;4.95;;;22.30;72.50;;;;;;5015108;28;20030;-53
2023/07/29 22:43:07;;;;;;;7.50;4.80;;;22.30;72.50;;;;;;5014916;28;20025;-48
2023/07/29 22:45:32;;;;;;;8.20;5.05;;;22.30;72.50;;;;;;5014520;28;20467;-53
2023/07/29 22:47:58;;;;;;;8.18;4.90;;;22.20;72.40;;;;;;5014918;28;20072;-52
2023/07/29 22:50:24;;;;;;;8.52;5.07;;;22.30;72.50;;;;;;5014723;28;20489;-51
2023/07/29 22:52:50;;;;;;;7.55;4.82;;;22.30;72.40;;;;;;5014661;28;20370;-51
2023/07/29 22:55:15;;;;;;;9.45;5.22;;;22.30;72.40;;;;;;4996985;28;20030;-51
2023/07/29 22:57:41;;;;;;;7.15;4.88;;;22.30;72.40;;;;;;5014846;28;20073;-50
2023/07/29 23:00:08;;;;;;;8.15;5.18;;;22.30;72.40;;;;;;5014690;28;20401;-50
2023/07/29 23:02:34;;;;;;;7.47;4.53;;;22.30;72.40;;;;;;5014605;28;20033;-50
2023/07/29 23:05:00;;;;;;;7.47;4.78;;;22.20;72.30;;;;;;5014188;28;20029;-48
2023/07/29 23:07:25;;;;;;;9.07;4.97;;;22.30;72.40;;;;;;5014399;28;20037;-51
2023/07/29 23:09:51;;;;;;;6.25;4.30;;;22.20;72.40;;;;;;5014418;28;20030;-49
2023/07/29 23:12:17;;;;;;;15.98;4.50;;;22.30;72.40;;;;;;5014108;28;20034;-50
2023/07/29 23:14:43;;;;;;;14.18;4.93;;;22.30;72.60;;;;;;5019423;28;20439;-51
2023/07/29 23:17:08;;;;;;;9.77;4.78;;;22.40;73.70;;;;;;5031092;28;20029;-49
2023/07/29 23:19:34;;;;;;;11.60;5.40;;;22.40;72.80;;;;;;5033634;28;20060;-49
2023/07/29 23:22:00;;;;;;;15.75;5.55;;;22.40;73.00;;;;;;5031395;28;20029;-50
2023/07/29 23:24:26;;;;;;;12.43;5.05;;;22.40;73.10;;;;;;5031298;28;20475;-49
2023/07/29 23:26:51;;;;;;;9.70;4.78;;;22.40;73.10;;;;;;5024453;28;20026;-50
2023/07/29 23:29:17;;;;;;;8.43;4.95;;;22.40;73.00;;;;;;5023751;28;20030;-53
2023/07/29 23:31:43;;;;;;;11.20;5.07;;;22.40;72.90;;;;;;5021042;28;20084;-53
2023/07/29 23:34:09;;;;;;;11.25;4.78;;;22.40;72.90;;;;;;5023634;28;20034;-48
2023/07/29 23:36:34;;;;;;;17.65;4.95;;;22.40;72.80;;;;;;5020656;28;20072;-53
2023/07/29 23:39:00;;;;;;;12.32;4.75;;;22.40;73.20;;;;;;5006963;28;20033;-48
2023/07/29 23:41:26;;;;;;;9.23;4.50;;;22.40;72.80;;;;;;5026396;28;20021;-51
2023/07/29 23:43:52;;;;;;;15.13;5.00;;;22.40;72.90;;;;;;5025808;28;20432;-50
2023/07/29 23:46:17;;;;;;;10.90;4.70;;;22.40;72.70;;;;;;5024840;28;20460;-50
2023/07/29 23:48:43;;;;;;;11.65;4.32;;;22.40;72.80;;;;;;5022370;28;20030;-54
2023/07/29 23:51:09;;;;;;;9.80;5.03;;;22.40;73.00;;;;;;5024297;28;20021;-54
2023/07/29 23:53:35;;;;;;;19.25;4.20;;;22.40;72.90;;;;;;5024034;28;20028;-52
2023/07/29 23:56:01;;;;;;;8.23;4.43;;;22.40;72.80;;;;;;5022098;28;20025;-51
2023/07/29 23:58:26;;;;;;;8.20;4.38;;;22.40;72.70;;;;;;5023659;28;20021;-53
